createdAt,value
2018-09-09T00:02:20.916Z,3.00
2018-09-09T00:04:48.280Z,3.10
2018-09-09T00:07:15.579Z,3.10
2018-09-09T00:09:42.907Z,3.03
2018-09-09T00:12:10.211Z,3.20
2018-09-09T00:14:37.543Z,4.77
2018-09-09T00:17:04.863Z,3.30
2018-09-09T00:19:32.163Z,3.93
2018-09-09T00:21:59.472Z,3.53
2018-09-09T00:24:26.785Z,3.53
2018-09-09T00:26:54.114Z,5.17
2018-09-09T00:29:21.522Z,3.43
2018-09-09T00:31:48.860Z,2.93
2018-09-09T00:34:16.194Z,4.77
2018-09-09T00:36:43.548Z,3.07
2018-09-09T00:39:10.856Z,3.00
2018-09-09T00:41:38.170Z,2.77
2018-09-09T00:44:05.481Z,2.87
2018-09-09T00:46:32.780Z,4.20
2018-09-09T00:49:00.117Z,2.87
2018-09-09T00:51:27.414Z,3.10
2018-09-09T00:53:54.727Z,2.70
2018-09-09T00:56:22.064Z,3.20
2018-09-09T00:58:49.393Z,3.17
2018-09-09T01:01:16.690Z,2.50
2018-09-09T01:03:44.041Z,3.30
2018-09-09T01:06:11.379Z,3.23
2018-09-09T01:08:38.718Z,3.10
2018-09-09T01:11:06.254Z,3.27
2018-09-09T01:13:33.567Z,3.60
2018-09-09T01:16:00.879Z,3.30
2018-09-09T01:18:28.193Z,3.43
2018-09-09T01:20:55.490Z,3.47
2018-09-09T01:23:22.839Z,3.53
2018-09-09T01:25:50.169Z,3.10
2018-09-09T01:28:17.477Z,3.30
2018-09-09T01:30:44.822Z,3.53
2018-09-09T01:33:12.146Z,3.77
2018-09-09T01:35:39.460Z,3.10
2018-09-09T01:38:06.790Z,4.17
2018-09-09T01:40:34.142Z,4.30
2018-09-09T01:43:01.456Z,4.47
2018-09-09T01:45:28.774Z,4.23
2018-09-09T01:47:56.085Z,4.93
2018-09-09T01:50:23.450Z,3.40
2018-09-09T01:52:50.803Z,3.07
2018-09-09T01:55:18.128Z,3.60
2018-09-09T01:57:45.453Z,3.80
2018-09-09T02:00:12.767Z,3.70
2018-09-09T02:02:40.135Z,3.00
2018-09-09T02:05:07.461Z,3.40
2018-09-09T02:07:34.762Z,3.10
2018-09-09T02:10:02.100Z,3.47
2018-09-09T02:12:29.438Z,3.90
2018-09-09T02:14:56.747Z,3.80
2018-09-09T02:17:24.139Z,3.63
2018-09-09T02:19:51.519Z,3.60
2018-09-09T02:22:18.843Z,3.47
2018-09-09T02:24:46.128Z,3.93
2018-09-09T02:27:13.473Z,4.73
2018-09-09T02:29:40.788Z,3.83
2018-09-09T02:32:08.078Z,3.80
2018-09-09T02:34:35.408Z,3.83
2018-09-09T02:37:02.715Z,3.20
2018-09-09T02:39:30.026Z,3.27
2018-09-09T02:41:57.355Z,3.23
2018-09-09T02:44:24.699Z,3.67
2018-09-09T02:46:52.092Z,3.10
2018-09-09T02:49:19.416Z,3.70
2018-09-09T02:51:46.732Z,3.93
2018-09-09T02:54:14.091Z,3.83
2018-09-09T02:56:41.402Z,4.90
2018-09-09T02:59:08.887Z,4.83
2018-09-09T03:01:36.204Z,4.03
2018-09-09T03:04:03.558Z,4.00
2018-09-09T03:06:30.869Z,4.17
2018-09-09T03:08:58.182Z,4.63
2018-09-09T03:11:25.524Z,4.60
2018-09-09T03:13:52.822Z,4.63
2018-09-09T03:16:20.362Z,3.90
2018-09-09T03:18:47.697Z,4.33
2018-09-09T03:21:15.003Z,3.90
2018-09-09T03:23:42.326Z,3.57
2018-09-09T03:26:09.656Z,3.03
2018-09-09T03:28:37.028Z,3.07
2018-09-09T03:31:04.314Z,2.93
2018-09-09T03:33:31.621Z,6.00
2018-09-09T03:35:58.915Z,2.80
2018-09-09T03:38:26.258Z,3.10
2018-09-09T03:40:53.595Z,3.63
2018-09-09T03:43:20.943Z,3.40
2018-09-09T03:45:48.240Z,3.40
2018-09-09T03:48:15.547Z,4.00
2018-09-09T03:50:42.897Z,3.80
2018-09-09T03:53:10.201Z,5.10
2018-09-09T03:55:37.534Z,5.40
2018-09-09T03:58:05.069Z,7.30
2018-09-09T04:00:32.525Z,7.80
2018-09-09T04:02:59.814Z,6.87
2018-09-09T04:05:27.129Z,6.17
2018-09-09T04:07:54.428Z,6.40
2018-09-09T04:10:21.752Z,6.73
2018-09-09T04:12:49.040Z,5.90
2018-09-09T04:15:16.342Z,5.80
2018-09-09T04:17:43.706Z,5.70
2018-09-09T04:20:11.020Z,6.00
2018-09-09T04:22:38.311Z,5.03
2018-09-09T04:25:05.617Z,5.03
2018-09-09T04:27:32.926Z,3.93
2018-09-09T04:30:00.260Z,3.90
2018-09-09T04:32:27.567Z,3.87
2018-09-09T04:34:54.890Z,4.67
2018-09-09T04:37:22.238Z,4.17
2018-09-09T04:39:49.568Z,4.03
2018-09-09T04:42:16.958Z,3.20
2018-09-09T04:44:44.362Z,4.30
2018-09-09T04:47:11.692Z,4.57
2018-09-09T04:49:38.991Z,3.93
2018-09-09T04:52:06.359Z,4.13
2018-09-09T04:54:33.654Z,4.53
2018-09-09T04:57:01.008Z,4.03
2018-09-09T04:59:28.326Z,4.57
2018-09-09T05:01:55.662Z,4.00
2018-09-09T05:04:22.966Z,4.83
2018-09-09T05:06:50.296Z,4.83
2018-09-09T05:09:17.622Z,4.07
2018-09-09T05:11:44.906Z,3.47
2018-09-09T05:14:12.233Z,3.63
2018-09-09T05:16:39.533Z,3.63
2018-09-09T05:19:06.894Z,4.07
2018-09-09T05:21:34.214Z,3.90
2018-09-09T05:24:01.540Z,3.43
2018-09-09T05:26:28.860Z,4.30
2018-09-09T05:28:56.175Z,3.10
2018-09-09T05:31:23.482Z,3.63
2018-09-09T05:33:50.842Z,3.60
2018-09-09T05:36:18.187Z,4.00
2018-09-09T05:38:45.530Z,4.07
2018-09-09T05:41:12.858Z,3.80
2018-09-09T05:43:40.220Z,5.03
2018-09-09T05:46:07.572Z,4.37
2018-09-09T05:48:34.862Z,4.47
2018-09-09T05:51:02.223Z,5.30
2018-09-09T05:53:29.535Z,6.60
2018-09-09T05:55:56.826Z,5.50
2018-09-09T05:58:24.157Z,5.13
2018-09-09T06:00:51.500Z,5.53
2018-09-09T06:03:18.823Z,4.73
2018-09-09T06:05:46.163Z,4.63
2018-09-09T06:08:13.457Z,6.20
2018-09-09T06:10:40.776Z,5.40
2018-09-09T06:13:08.065Z,5.67
2018-09-09T06:15:35.386Z,5.97
2018-09-09T06:18:02.685Z,8.07
2018-09-09T06:20:30.013Z,6.67
2018-09-09T06:22:57.350Z,6.27
2018-09-09T06:25:24.710Z,6.30
2018-09-09T06:27:52.050Z,6.73
2018-09-09T06:30:19.391Z,7.50
2018-09-09T06:32:46.690Z,6.43
2018-09-09T06:35:14.019Z,6.97
2018-09-09T06:37:41.355Z,6.17
2018-09-09T06:40:08.676Z,6.77
2018-09-09T06:42:36.000Z,6.27
2018-09-09T06:45:03.438Z,6.47
2018-09-09T06:47:30.728Z,6.63
2018-09-09T06:49:58.056Z,6.07
2018-09-09T06:52:25.394Z,5.80
2018-09-09T06:54:52.761Z,6.37
2018-09-09T06:57:20.409Z,6.57
2018-09-09T06:59:47.730Z,6.97
2018-09-09T07:02:15.089Z,7.33
2018-09-09T07:04:42.387Z,7.43
2018-09-09T07:07:09.730Z,7.43
2018-09-09T07:09:37.054Z,8.77
2018-09-09T07:12:04.398Z,7.03
2018-09-09T07:14:32.098Z,6.87
2018-09-09T07:17:00.447Z,7.13
2018-09-09T07:19:27.739Z,7.40
2018-09-09T07:21:55.079Z,7.90
2018-09-09T07:24:22.433Z,6.90
2018-09-09T07:26:49.755Z,7.60
2018-09-09T07:29:17.120Z,7.33
2018-09-09T07:31:44.448Z,8.87
2018-09-09T07:34:11.793Z,6.47
2018-09-09T07:36:39.146Z,7.40
2018-09-09T07:39:06.470Z,6.17
2018-09-09T07:41:33.812Z,6.03
2018-09-09T07:44:01.195Z,7.07
2018-09-09T07:46:28.591Z,5.90
2018-09-09T07:48:55.908Z,5.70
2018-09-09T07:51:23.226Z,5.97
2018-09-09T07:53:50.598Z,5.67
2018-09-09T07:56:17.985Z,5.47
2018-09-09T07:58:45.298Z,5.33
2018-09-09T08:01:12.659Z,4.60
2018-09-09T08:03:39.955Z,4.50
2018-09-09T08:06:07.310Z,4.73
2018-09-09T08:08:34.657Z,3.80
2018-09-09T08:11:01.969Z,4.20
2018-09-09T08:13:29.295Z,3.83
2018-09-09T08:15:56.660Z,3.53
2018-09-09T08:18:24.035Z,3.83
2018-09-09T08:20:51.323Z,4.00
2018-09-09T08:23:18.656Z,4.07
2018-09-09T08:25:45.957Z,3.40
2018-09-09T08:28:13.270Z,3.60
2018-09-09T08:30:40.601Z,3.00
2018-09-09T08:33:07.924Z,3.83
2018-09-09T08:35:35.228Z,3.57
2018-09-09T08:38:02.578Z,3.27
2018-09-09T08:40:29.975Z,3.23
2018-09-09T08:42:57.304Z,4.00
2018-09-09T08:45:24.670Z,3.40
2018-09-09T08:47:51.935Z,3.20
2018-09-09T08:50:19.319Z,2.80
2018-09-09T08:52:46.619Z,3.40
2018-09-09T08:55:14.091Z,3.00
2018-09-09T08:57:41.800Z,3.53
2018-09-09T09:00:09.050Z,2.60
2018-09-09T09:02:36.463Z,3.33
2018-09-09T09:05:03.853Z,3.03
2018-09-09T09:07:31.427Z,3.50
2018-09-09T09:09:58.734Z,3.33
2018-09-09T09:12:26.165Z,2.97
2018-09-09T09:14:53.579Z,3.00
2018-09-09T09:17:21.277Z,4.60
2018-09-09T09:19:48.602Z,2.90
2018-09-09T09:22:15.918Z,3.20
2018-09-09T09:24:43.282Z,3.27
2018-09-09T09:27:10.616Z,4.40
2018-09-09T09:29:37.931Z,3.27
2018-09-09T09:32:05.243Z,5.17
2018-09-09T09:34:32.603Z,3.57
2018-09-09T09:36:59.916Z,2.77
2018-09-09T09:39:27.352Z,5.20
2018-09-09T09:41:54.566Z,2.70
2018-09-09T09:44:21.950Z,3.80
2018-09-09T09:46:49.316Z,3.00
2018-09-09T09:49:16.656Z,2.80
2018-09-09T09:51:43.938Z,3.27
2018-09-09T09:54:11.269Z,3.73
2018-09-09T09:56:38.722Z,3.03
2018-09-09T09:59:06.254Z,2.77
2018-09-09T10:01:33.571Z,3.70
2018-09-09T10:04:01.041Z,3.17
2018-09-09T10:06:28.459Z,3.70
2018-09-09T10:08:55.799Z,3.70
2018-09-09T10:11:23.218Z,3.60
2018-09-09T10:13:50.651Z,4.17
2018-09-09T10:16:17.954Z,4.00
2018-09-09T10:18:45.291Z,5.20
2018-09-09T10:21:12.614Z,2.93
2018-09-09T10:23:39.988Z,3.90
2018-09-09T10:26:07.272Z,4.83
2018-09-09T10:28:34.726Z,3.90
2018-09-09T10:31:02.067Z,2.93
2018-09-09T10:33:29.445Z,3.57
2018-09-09T10:35:56.977Z,3.10
2018-09-09T10:38:24.367Z,2.70
2018-09-09T10:40:51.771Z,4.03
2018-09-09T10:43:19.090Z,2.77
2018-09-09T10:45:46.415Z,2.50
2018-09-09T10:48:13.739Z,2.70
2018-09-09T10:50:41.035Z,2.50
2018-09-09T10:53:08.388Z,5.40
2018-09-09T10:55:35.780Z,2.43
2018-09-09T10:58:03.143Z,2.70
2018-09-09T11:00:30.711Z,2.13
2018-09-09T11:02:58.614Z,1.90
2018-09-09T11:05:25.981Z,2.00
2018-09-09T11:07:53.279Z,2.40
2018-09-09T11:10:20.582Z,2.50
2018-09-09T11:12:47.982Z,2.60
2018-09-09T11:15:15.594Z,1.87
2018-09-09T11:17:42.891Z,2.00
2018-09-09T11:20:10.250Z,2.20
2018-09-09T11:22:37.618Z,2.33
2018-09-09T11:25:05.169Z,1.83
2018-09-09T11:27:32.503Z,1.40
2018-09-09T11:29:59.949Z,2.00
2018-09-09T11:32:27.271Z,2.17
2018-09-09T11:34:54.590Z,1.90
2018-09-09T11:37:21.938Z,2.47
2018-09-09T11:39:49.264Z,2.40
2018-09-09T11:42:16.651Z,1.67
2018-09-09T11:44:43.965Z,3.43
2018-09-09T11:47:11.330Z,2.00
2018-09-09T11:49:38.692Z,2.93
2018-09-09T11:52:06.035Z,1.90
2018-09-09T11:54:33.369Z,1.53
2018-09-09T11:57:00.842Z,1.70
2018-09-09T11:59:28.487Z,1.60
2018-09-09T12:01:55.826Z,3.43
2018-09-09T12:04:23.223Z,2.50
2018-09-09T12:06:50.594Z,3.10
2018-09-09T12:09:18.111Z,2.03
2018-09-09T12:11:45.423Z,1.70
2018-09-09T12:14:12.966Z,2.20
2018-09-09T12:16:40.334Z,1.70
2018-09-09T12:19:07.645Z,1.70
2018-09-09T12:21:35.098Z,2.10
2018-09-09T12:24:02.487Z,2.30
2018-09-09T12:26:29.891Z,2.40
2018-09-09T12:28:57.245Z,2.00
2018-09-09T12:31:24.580Z,3.47
2018-09-09T12:33:51.924Z,2.13
2018-09-09T12:36:19.223Z,1.90
2018-09-09T12:38:46.734Z,1.90
2018-09-09T12:41:14.148Z,2.47
2018-09-09T12:43:41.536Z,2.33
2018-09-09T12:46:09.163Z,1.87
2018-09-09T12:48:36.591Z,2.10
2018-09-09T12:51:03.939Z,3.10
2018-09-09T12:53:31.352Z,2.13
2018-09-09T12:55:58.718Z,2.00
2018-09-09T12:58:26.271Z,2.07
2018-09-09T13:00:53.600Z,1.80
2018-09-09T13:03:20.931Z,1.90
2018-09-09T13:05:48.244Z,3.23
2018-09-09T13:08:15.656Z,1.83
2018-09-09T13:10:42.995Z,2.00
2018-09-09T13:13:10.385Z,1.80
2018-09-09T13:15:37.719Z,1.40
2018-09-09T13:18:05.180Z,1.73
2018-09-09T13:20:32.520Z,1.83
2018-09-09T13:22:59.879Z,4.20
2018-09-09T13:25:27.192Z,1.80
2018-09-09T13:27:54.615Z,1.60
2018-09-09T13:30:21.975Z,1.90
2018-09-09T13:32:49.343Z,2.30
2018-09-09T13:35:16.695Z,3.33
2018-09-09T13:37:44.623Z,1.70
2018-09-09T13:40:11.988Z,1.87
2018-09-09T13:42:39.474Z,1.53
2018-09-09T13:45:06.811Z,1.40
2018-09-09T13:47:34.219Z,1.90
2018-09-09T13:50:01.589Z,1.87
2018-09-09T13:52:28.895Z,1.70
2018-09-09T13:54:56.238Z,2.30
2018-09-09T13:57:23.553Z,1.87
2018-09-09T13:59:50.903Z,2.60
2018-09-09T14:02:18.238Z,1.67
2018-09-09T14:04:45.555Z,1.83
2018-09-09T14:07:12.886Z,1.87
2018-09-09T14:09:40.199Z,1.70
2018-09-09T14:12:07.538Z,1.70
2018-09-09T14:14:34.863Z,1.70
2018-09-09T14:17:02.172Z,1.40
2018-09-09T14:19:29.483Z,1.60
2018-09-09T14:21:56.806Z,2.13
2018-09-09T14:24:24.182Z,1.93
2018-09-09T14:26:51.517Z,1.80
2018-09-09T14:29:18.847Z,1.57
2018-09-09T14:31:46.142Z,1.90
2018-09-09T14:34:13.478Z,1.70
2018-09-09T14:36:40.803Z,2.20
2018-09-09T14:39:08.145Z,2.10
2018-09-09T14:41:35.442Z,1.77
2018-09-09T14:44:02.761Z,1.93
2018-09-09T14:46:30.087Z,1.77
2018-09-09T14:48:57.399Z,2.57
2018-09-09T14:51:24.731Z,1.33
2018-09-09T14:53:52.081Z,1.67
2018-09-09T14:56:19.407Z,2.90
2018-09-09T14:58:46.724Z,1.70
2018-09-09T15:01:14.054Z,1.40
2018-09-09T15:03:41.398Z,1.37
2018-09-09T15:06:08.706Z,1.67
2018-09-09T15:08:36.031Z,1.50
2018-09-09T15:11:03.420Z,1.63
2018-09-09T15:13:30.756Z,1.30
2018-09-09T15:15:58.096Z,2.10
2018-09-09T15:18:25.399Z,2.20
2018-09-09T15:20:52.710Z,1.73
2018-09-09T15:23:20.074Z,2.33
2018-09-09T15:25:47.372Z,1.77
2018-09-09T15:28:14.700Z,1.40
2018-09-09T15:30:42.059Z,1.70
2018-09-09T15:33:09.375Z,1.80
2018-09-09T15:35:36.705Z,1.50
2018-09-09T15:38:04.880Z,1.63
2018-09-09T15:40:32.220Z,1.93
2018-09-09T15:42:59.538Z,1.30
2018-09-09T15:45:26.936Z,1.03
2018-09-09T15:47:54.183Z,1.30
2018-09-09T15:50:21.646Z,1.73
2018-09-09T15:52:49.047Z,1.60
2018-09-09T15:55:16.367Z,1.30
2018-09-09T15:57:43.852Z,1.20
2018-09-09T16:00:11.153Z,1.50
2018-09-09T16:02:38.472Z,1.70
2018-09-09T16:05:06.379Z,2.23
2018-09-09T16:07:33.957Z,2.53
2018-09-09T16:10:01.648Z,2.40
2018-09-09T16:12:29.224Z,2.93
2018-09-09T16:14:56.572Z,2.10
2018-09-09T16:17:23.899Z,2.33
2018-09-09T16:19:51.337Z,1.70
2018-09-09T16:22:18.642Z,1.40
2018-09-09T16:24:46.046Z,1.70
2018-09-09T16:27:13.429Z,1.90
2018-09-09T16:29:40.749Z,3.47
2018-09-09T16:32:08.129Z,2.30
2018-09-09T16:34:35.472Z,1.47
2018-09-09T16:37:02.799Z,2.20
2018-09-09T16:39:30.636Z,1.70
2018-09-09T16:41:57.931Z,1.20
2018-09-09T16:44:25.260Z,1.90
2018-09-09T16:46:52.691Z,1.57
2018-09-09T16:49:20.850Z,3.03
2018-09-09T16:51:48.157Z,2.50
2018-09-09T16:54:15.515Z,1.20
2018-09-09T16:56:42.928Z,1.67
2018-09-09T16:59:10.602Z,1.87
2018-09-09T17:01:38.034Z,1.83
2018-09-09T17:04:05.318Z,4.23
2018-09-09T17:06:32.658Z,3.73
2018-09-09T17:08:59.962Z,1.83
2018-09-09T17:11:27.258Z,2.03
2018-09-09T17:13:54.797Z,1.93
2018-09-09T17:16:22.288Z,1.37
2018-09-09T17:18:49.603Z,1.43
2018-09-09T17:21:16.984Z,1.40
2018-09-09T17:23:44.299Z,10.97
2018-09-09T17:26:11.602Z,2.10
2018-09-09T17:28:38.921Z,1.63
2018-09-09T17:31:06.206Z,2.20
2018-09-09T17:33:33.514Z,1.50
2018-09-09T17:36:00.807Z,1.97
2018-09-09T17:38:28.212Z,1.70
2018-09-09T17:40:55.539Z,1.57
2018-09-09T17:43:22.848Z,2.17
2018-09-09T17:45:50.154Z,1.43
2018-09-09T17:48:18.044Z,1.53
2018-09-09T17:50:45.355Z,1.40
2018-09-09T17:53:12.667Z,1.90
2018-09-09T17:55:39.966Z,1.27
2018-09-09T17:58:07.283Z,2.00
2018-09-09T18:03:08.445Z,1.80
2018-09-09T18:05:35.751Z,2.57
2018-09-09T18:08:03.061Z,3.50
2018-09-09T18:10:30.374Z,2.73
2018-09-09T18:12:57.760Z,2.60
2018-09-09T18:15:25.092Z,2.37
2018-09-09T18:17:52.383Z,2.53
2018-09-09T18:20:19.752Z,3.20
2018-09-09T18:22:47.120Z,3.77
2018-09-09T18:25:14.382Z,3.37
2018-09-09T18:27:41.920Z,2.53
2018-09-09T18:30:09.266Z,2.60
2018-09-09T18:32:36.570Z,2.40
2018-09-09T18:35:03.927Z,2.80
2018-09-09T18:37:31.305Z,3.00
2018-09-09T18:39:58.987Z,2.87
2018-09-09T18:42:26.291Z,2.80
2018-09-09T18:44:53.639Z,3.17
2018-09-09T18:47:27.422Z,3.43
2018-09-09T18:49:54.747Z,5.50
2018-09-09T18:52:22.070Z,2.60
2018-09-09T18:54:49.462Z,3.27
2018-09-09T18:57:16.786Z,3.20
2018-09-09T18:59:44.114Z,3.17
2018-09-09T19:02:11.415Z,3.00
2018-09-09T19:04:38.809Z,4.40
2018-09-09T19:07:06.169Z,2.67
2018-09-09T19:09:33.457Z,3.30
2018-09-09T19:12:00.782Z,3.00
2018-09-09T19:14:28.098Z,2.50
2018-09-09T19:16:55.402Z,2.43
2018-09-09T19:19:23.570Z,3.17
2018-09-09T19:21:51.463Z,2.63
2018-09-09T19:24:18.755Z,3.27
2018-09-09T19:26:46.062Z,3.63
2018-09-09T19:29:13.370Z,2.97
2018-09-09T19:31:40.703Z,2.67
2018-09-09T19:34:08.032Z,2.83
2018-09-09T19:36:35.404Z,2.97
2018-09-09T19:39:03.290Z,2.57
2018-09-09T19:41:30.615Z,2.70
2018-09-09T19:43:57.980Z,2.63
2018-09-09T19:46:25.238Z,2.43
2018-09-09T19:48:52.558Z,2.60
2018-09-09T19:51:19.859Z,2.30
2018-09-09T19:53:47.459Z,3.53
2018-09-09T19:56:15.363Z,2.30
2018-09-09T19:58:42.872Z,3.07
2018-09-09T20:01:10.189Z,2.70
2018-09-09T20:03:38.264Z,2.20
2018-09-09T20:06:05.604Z,3.00
2018-09-09T20:08:32.984Z,3.73
2018-09-09T20:11:00.319Z,2.20
2018-09-09T20:13:27.894Z,2.93
2018-09-09T20:15:55.283Z,2.83
2018-09-09T20:18:22.598Z,2.67
2018-09-09T20:20:49.961Z,2.70
2018-09-09T20:23:17.380Z,3.00
2018-09-09T20:25:44.781Z,3.83
2018-09-09T20:28:12.198Z,2.40
2018-09-09T20:30:39.995Z,3.53
2018-09-09T20:33:07.602Z,2.77
2018-09-09T20:35:34.962Z,3.07
2018-09-09T20:38:02.328Z,2.30
2018-09-09T20:40:30.038Z,2.43
2018-09-09T20:42:57.540Z,3.43
2018-09-09T20:45:24.872Z,3.57
2018-09-09T20:47:52.218Z,2.27
2018-09-09T20:50:19.557Z,2.67
2018-09-09T20:52:46.919Z,2.93
2018-09-09T20:55:14.248Z,2.43
2018-09-09T20:57:41.923Z,2.40
2018-09-09T21:00:09.640Z,2.10
2018-09-09T21:02:36.967Z,2.47
2018-09-09T21:05:04.318Z,2.67
2018-09-09T21:07:31.639Z,2.70
2018-09-09T21:09:58.987Z,2.20
2018-09-09T21:12:26.371Z,2.40
2018-09-09T21:14:53.734Z,2.27
2018-09-09T21:17:21.052Z,2.50
2018-09-09T21:19:48.355Z,2.30
2018-09-09T21:22:15.700Z,2.23
2018-09-09T21:24:43.031Z,2.00
2018-09-09T21:27:10.355Z,5.50
2018-09-09T21:29:37.738Z,2.10
2018-09-09T21:32:05.215Z,3.57
2018-09-09T21:34:32.538Z,3.00
2018-09-09T21:36:59.883Z,2.40
2018-09-09T21:39:27.253Z,2.07
2018-09-09T21:41:55.304Z,4.60
2018-09-09T21:44:22.650Z,2.60
2018-09-09T21:46:50.427Z,2.47
2018-09-09T21:49:18.287Z,1.97
2018-09-09T21:51:45.771Z,1.93
2018-09-09T21:54:13.090Z,2.40
2018-09-09T21:56:43.989Z,1.80
2018-09-09T21:59:13.906Z,1.97
2018-09-09T22:01:41.346Z,2.13
2018-09-09T22:04:08.679Z,2.57
2018-09-09T22:06:35.974Z,2.10
2018-09-09T22:09:05.318Z,2.20
2018-09-09T22:11:32.646Z,2.20
2018-09-09T22:13:59.967Z,2.23
2018-09-09T22:16:27.250Z,4.17
2018-09-09T22:18:55.094Z,2.17
2018-09-09T22:21:22.409Z,1.93
2018-09-09T22:23:49.781Z,1.93
2018-09-09T22:26:17.043Z,2.30
2018-09-09T22:28:44.470Z,2.03
2018-09-09T22:31:11.786Z,5.30
2018-09-09T22:33:39.135Z,2.27
2018-09-09T22:36:06.441Z,2.80
2018-09-09T22:38:33.798Z,2.27
2018-09-09T22:41:01.111Z,2.27
2018-09-09T22:43:28.463Z,2.50
2018-09-09T22:45:55.904Z,2.10
2018-09-09T22:48:23.199Z,3.80
2018-09-09T22:50:50.518Z,2.43
2018-09-09T22:53:17.827Z,2.20
2018-09-09T22:55:45.134Z,2.37
2018-09-09T22:58:12.467Z,2.13
2018-09-09T23:00:39.791Z,2.33
2018-09-09T23:03:07.190Z,2.67
2018-09-09T23:05:34.536Z,3.07
2018-09-09T23:08:01.798Z,2.03
2018-09-09T23:10:29.094Z,2.40
2018-09-09T23:12:56.398Z,2.37
2018-09-09T23:15:23.751Z,2.40
2018-09-09T23:17:51.106Z,3.70
2018-09-09T23:20:18.427Z,2.30
2018-09-09T23:22:45.758Z,1.90
2018-09-09T23:25:13.091Z,2.60
2018-09-09T23:27:40.386Z,2.10
2018-09-09T23:30:07.697Z,2.10
2018-09-09T23:32:35.006Z,2.33
2018-09-09T23:35:02.739Z,2.43
2018-09-09T23:37:30.033Z,2.43
2018-09-09T23:39:57.334Z,2.60
2018-09-09T23:42:24.642Z,2.57
2018-09-09T23:44:51.982Z,1.93
2018-09-09T23:47:19.286Z,2.10
2018-09-09T23:49:53.277Z,1.80
2018-09-09T23:52:20.603Z,2.03
2018-09-09T23:54:47.906Z,2.20
2018-09-09T23:57:15.194Z,2.10
2018-09-09T23:59:42.507Z,1.90
